createdAt,value
2022-10-07T00:00:55.076Z,72.81
2022-10-07T00:03:30.781Z,72.78
2022-10-07T00:06:13.840Z,72.92
2022-10-07T00:08:53.062Z,72.66
2022-10-07T00:11:22.846Z,72.69
2022-10-07T00:13:57.436Z,72.63
2022-10-07T00:16:38.705Z,72.75
2022-10-07T00:19:12.435Z,72.61
2022-10-07T00:21:40.823Z,72.54
2022-10-07T00:24:09.224Z,72.52
2022-10-07T00:26:40.305Z,72.41
2022-10-07T00:29:16.288Z,72.23
2022-10-07T00:31:46.770Z,72.42
2022-10-07T00:34:14.382Z,72.52
2022-10-07T00:36:44.946Z,72.17
2022-10-07T00:39:19.068Z,72.25
2022-10-07T00:41:53.133Z,72.27
2022-10-07T00:44:32.301Z,72.18
2022-10-07T00:47:07.507Z,72.02
2022-10-07T00:50:02.272Z,71.90
2022-10-07T00:52:36.703Z,72.04
2022-10-07T00:55:11.844Z,71.78
2022-10-07T00:57:44.126Z,71.73
2022-10-07T01:00:12.935Z,71.26
2022-10-07T01:02:41.028Z,71.17
2022-10-07T01:05:14.271Z,71.13
2022-10-07T01:07:46.134Z,71.01
2022-10-07T01:10:18.873Z,71.28
2022-10-07T01:13:23.979Z,71.46
2022-10-07T01:16:12.860Z,71.27
2022-10-07T01:19:13.224Z,70.50
2022-10-07T01:21:56.665Z,70.76
2022-10-07T01:24:55.843Z,70.48
2022-10-07T01:27:26.950Z,70.43
2022-10-07T01:30:08.331Z,70.39
2022-10-07T01:32:40.893Z,70.34
2022-10-07T01:35:18.325Z,70.33
2022-10-07T01:37:51.242Z,70.46
2022-10-07T01:40:33.636Z,70.44
2022-10-07T01:43:01.858Z,70.39
2022-10-07T01:45:31.224Z,70.63
2022-10-07T01:47:59.702Z,71.06
2022-10-07T01:50:29.814Z,71.55
2022-10-07T01:53:22.512Z,71.50
2022-10-07T01:55:55.585Z,71.72
2022-10-07T01:58:47.033Z,72.05
2022-10-07T02:01:50.610Z,71.89
2022-10-07T02:04:31.216Z,71.88
2022-10-07T02:07:16.341Z,71.87
2022-10-07T02:10:02.455Z,71.89
2022-10-07T02:12:35.575Z,72.02
2022-10-07T02:15:11.758Z,71.88
2022-10-07T02:17:43.866Z,72.03
2022-10-07T02:20:14.994Z,72.11
2022-10-07T02:22:45.298Z,71.97
2022-10-07T02:25:15.452Z,72.16
2022-10-07T02:27:55.640Z,72.00
2022-10-07T02:30:24.752Z,72.24
2022-10-07T02:32:59.132Z,72.10
2022-10-07T02:35:37.414Z,72.11
2022-10-07T02:38:10.106Z,72.06
2022-10-07T02:40:43.580Z,72.30
2022-10-07T02:43:23.358Z,72.18
2022-10-07T02:45:59.700Z,72.08
2022-10-07T02:48:32.603Z,71.91
2022-10-07T02:51:03.850Z,72.22
2022-10-07T02:53:33.519Z,72.23
2022-10-07T02:56:04.022Z,72.17
2022-10-07T02:58:31.483Z,72.19
2022-10-07T03:01:01.424Z,72.35
2022-10-07T03:03:30.557Z,72.29
2022-10-07T03:06:05.103Z,72.38
2022-10-07T03:08:33.319Z,71.82
2022-10-07T03:11:01.865Z,72.23
2022-10-07T03:13:31.323Z,72.34
2022-10-07T03:16:04.489Z,72.27
2022-10-07T03:18:32.552Z,72.56
2022-10-07T03:21:19.381Z,72.15
2022-10-07T03:23:52.753Z,72.52
2022-10-07T03:26:22.083Z,72.13
2022-10-07T03:28:49.708Z,72.17
2022-10-07T03:31:17.016Z,72.21
2022-10-07T03:33:48.305Z,72.36
2022-10-07T03:36:15.429Z,72.01
2022-10-07T03:38:45.124Z,71.81
2022-10-07T03:41:13.141Z,71.88
2022-10-07T03:43:40.391Z,71.77
2022-10-07T03:46:09.621Z,71.65
2022-10-07T03:48:38.237Z,71.63
2022-10-07T03:51:05.939Z,71.53
2022-10-07T03:53:38.317Z,71.55
2022-10-07T03:56:06.264Z,71.32
2022-10-07T03:58:33.883Z,71.60
2022-10-07T04:01:07.879Z,71.56
2022-10-07T04:03:37.046Z,71.39
2022-10-07T04:06:04.612Z,71.43
2022-10-07T04:08:34.478Z,71.47
2022-10-07T04:11:04.076Z,71.48
2022-10-07T04:13:32.472Z,71.52
2022-10-07T04:16:06.333Z,71.84
2022-10-07T04:18:33.379Z,71.51
2022-10-07T04:21:00.948Z,71.29
2022-10-07T04:23:29.684Z,71.48
2022-10-07T04:25:56.800Z,71.62
2022-10-07T04:28:26.361Z,71.49
2022-10-07T04:31:16.135Z,71.38
2022-10-07T04:33:46.604Z,71.19
2022-10-07T04:36:19.498Z,71.03
2022-10-07T04:39:00.301Z,70.77
2022-10-07T04:41:31.565Z,70.66
2022-10-07T04:43:58.587Z,70.77
2022-10-07T04:46:30.103Z,70.48
2022-10-07T04:49:05.294Z,70.34
2022-10-07T04:51:32.927Z,70.08
2022-10-07T04:54:01.348Z,70.09
2022-10-07T04:56:38.159Z,69.76
2022-10-07T04:59:07.846Z,69.78
2022-10-07T05:01:36.972Z,69.77
2022-10-07T05:04:04.439Z,69.42
2022-10-07T05:06:33.633Z,69.41
2022-10-07T05:09:01.009Z,69.01
2022-10-07T05:11:30.173Z,68.65
2022-10-07T05:14:03.598Z,68.32
2022-10-07T05:16:32.255Z,67.64
2022-10-07T05:18:59.854Z,67.62
2022-10-07T05:21:26.932Z,67.55
2022-10-07T05:23:54.054Z,67.39
2022-10-07T05:26:26.239Z,67.19
2022-10-07T05:28:57.877Z,67.32
2022-10-07T05:31:31.584Z,67.17
2022-10-07T05:34:02.279Z,66.76
2022-10-07T05:36:29.843Z,66.96
2022-10-07T05:38:59.184Z,67.06
2022-10-07T05:41:44.995Z,67.73
2022-10-07T05:44:14.451Z,66.79
2022-10-07T05:46:42.514Z,66.81
2022-10-07T05:49:10.175Z,66.51
2022-10-07T05:51:37.378Z,66.13
2022-10-07T05:54:05.656Z,66.25
2022-10-07T05:56:37.758Z,66.07
2022-10-07T05:59:05.043Z,66.05
2022-10-07T06:01:32.645Z,65.64
2022-10-07T06:04:07.003Z,65.57
2022-10-07T06:06:36.582Z,65.82
2022-10-07T06:09:26.239Z,65.39
2022-10-07T06:12:12.329Z,65.25
2022-10-07T06:14:39.946Z,65.49
2022-10-07T06:17:08.279Z,64.38
2022-10-07T06:19:37.723Z,64.23
2022-10-07T06:22:05.214Z,63.25
2022-10-07T06:24:35.296Z,62.38
2022-10-07T06:27:02.895Z,62.79
2022-10-07T06:29:30.701Z,61.87
2022-10-07T06:31:58.482Z,61.75
2022-10-07T06:34:26.092Z,61.67
2022-10-07T06:36:54.627Z,61.82
2022-10-07T06:39:21.627Z,61.37
2022-10-07T06:41:52.518Z,61.46
2022-10-07T06:44:39.725Z,61.39
2022-10-07T06:47:11.828Z,61.60
2022-10-07T06:49:41.303Z,61.31
2022-10-07T06:52:08.516Z,61.81
2022-10-07T06:54:36.408Z,61.54
2022-10-07T06:57:20.496Z,61.22
2022-10-07T06:59:51.728Z,61.05
2022-10-07T07:02:19.724Z,60.76
2022-10-07T07:08:17.423Z,59.46
2022-10-07T07:10:45.983Z,59.55
2022-10-07T07:13:14.611Z,59.46
2022-10-07T07:15:42.138Z,59.51
2022-10-07T07:18:10.720Z,58.95
2022-10-07T07:20:39.142Z,59.17
2022-10-07T07:23:09.606Z,58.92
2022-10-07T07:25:38.911Z,59.13
2022-10-07T07:28:08.050Z,59.32
2022-10-07T07:30:37.192Z,59.29
2022-10-07T07:33:05.456Z,58.94
2022-10-07T07:35:38.775Z,59.46
2022-10-07T07:38:06.135Z,59.22
2022-10-07T07:40:37.700Z,58.86
2022-10-07T07:43:06.027Z,59.54
2022-10-07T07:45:36.885Z,58.98
2022-10-07T07:48:04.994Z,58.73
2022-10-07T07:50:34.125Z,59.41
2022-10-07T07:53:04.520Z,59.55
2022-10-07T07:55:32.343Z,59.12
2022-10-07T07:57:59.617Z,57.55
2022-10-07T08:00:26.861Z,56.42
2022-10-07T08:03:02.673Z,53.10
2022-10-07T08:05:35.037Z,51.21
2022-10-07T08:08:03.437Z,51.13
2022-10-07T08:10:31.312Z,49.89
2022-10-07T08:12:59.150Z,48.92
2022-10-07T08:15:26.429Z,48.06
2022-10-07T08:17:54.027Z,47.42
2022-10-07T08:20:23.164Z,46.58
2022-10-07T08:22:52.670Z,47.05
2022-10-07T08:25:22.629Z,48.37
2022-10-07T08:27:50.725Z,48.19
2022-10-07T08:30:17.990Z,49.13
2022-10-07T08:32:45.679Z,49.09
2022-10-07T08:35:12.893Z,49.85
2022-10-07T08:37:41.098Z,50.97
2022-10-07T08:40:15.324Z,51.56
2022-10-07T08:42:44.132Z,51.74
2022-10-07T08:45:21.113Z,51.70
2022-10-07T08:47:51.558Z,53.00
2022-10-07T08:50:25.048Z,53.29
2022-10-07T08:53:00.210Z,53.41
2022-10-07T08:55:50.072Z,53.63
2022-10-07T08:58:58.044Z,53.64
2022-10-07T09:01:33.927Z,53.45
2022-10-07T09:04:17.269Z,54.19
2022-10-07T09:06:55.401Z,53.95
2022-10-07T09:09:40.197Z,54.00
2022-10-07T09:12:23.142Z,53.88
2022-10-07T09:14:55.135Z,53.52
2022-10-07T09:17:38.325Z,53.26
2022-10-07T09:20:17.833Z,53.43
2022-10-07T09:22:51.041Z,51.65
2022-10-07T09:25:24.329Z,51.92
2022-10-07T09:27:52.362Z,51.01
2022-10-07T09:30:21.259Z,51.43
2022-10-07T09:32:50.537Z,52.02
2022-10-07T09:35:22.171Z,51.88
2022-10-07T09:38:09.587Z,52.89
2022-10-07T09:40:36.521Z,52.54
2022-10-07T09:43:14.268Z,53.87
2022-10-07T09:45:47.077Z,53.25
2022-10-07T09:48:27.763Z,53.64
2022-10-07T09:51:27.728Z,53.49
2022-10-07T09:53:59.032Z,53.11
2022-10-07T09:56:39.626Z,53.42
2022-10-07T09:59:21.813Z,52.93
2022-10-07T10:01:55.904Z,53.21
2022-10-07T10:04:35.806Z,53.21
2022-10-07T10:07:16.918Z,53.02
2022-10-07T10:10:17.690Z,52.77
2022-10-07T10:12:56.338Z,52.31
2022-10-07T10:15:25.619Z,52.60
2022-10-07T10:17:54.864Z,52.31
2022-10-07T10:20:29.804Z,53.40
2022-10-07T10:22:58.214Z,52.69
2022-10-07T10:26:10.981Z,52.28
2022-10-07T10:28:49.931Z,52.46
2022-10-07T10:31:24.226Z,52.34
2022-10-07T10:34:05.437Z,52.56
2022-10-07T10:36:38.162Z,52.07
2022-10-07T10:39:35.349Z,52.49
2022-10-07T10:42:08.099Z,52.54
2022-10-07T10:44:34.968Z,51.88
2022-10-07T10:47:12.412Z,52.10
2022-10-07T10:49:45.572Z,51.98
2022-10-07T10:52:26.041Z,51.67
2022-10-07T10:55:18.085Z,51.28
2022-10-07T10:58:06.739Z,50.66
2022-10-07T11:00:58.861Z,51.79
2022-10-07T11:03:40.416Z,50.67
2022-10-07T11:06:14.242Z,51.40
2022-10-07T11:08:45.296Z,51.26
2022-10-07T11:11:19.138Z,51.98
2022-10-07T11:14:00.509Z,51.56
2022-10-07T11:16:38.633Z,52.16
2022-10-07T11:19:35.869Z,52.12
2022-10-07T11:22:03.780Z,51.32
2022-10-07T11:24:40.782Z,52.22
2022-10-07T11:27:16.998Z,52.16
2022-10-07T11:29:50.187Z,52.26
2022-10-07T11:32:24.190Z,52.32
2022-10-07T11:34:59.999Z,51.77
2022-10-07T11:37:38.775Z,52.41
2022-10-07T11:40:07.361Z,52.23
2022-10-07T11:42:43.130Z,52.80
2022-10-07T11:45:18.734Z,52.35
2022-10-07T11:48:01.513Z,52.11
2022-10-07T11:50:38.630Z,52.04
2022-10-07T11:53:17.583Z,52.11
2022-10-07T11:55:52.958Z,52.11
2022-10-07T11:58:37.258Z,52.28
2022-10-07T12:01:26.139Z,52.69
2022-10-07T12:04:14.342Z,52.14
2022-10-07T12:07:19.695Z,52.58
2022-10-07T12:10:05.119Z,52.56
2022-10-07T12:12:47.673Z,52.77
2022-10-07T12:15:42.290Z,51.62
2022-10-07T12:18:13.422Z,52.13
2022-10-07T12:20:55.021Z,52.35
2022-10-07T12:23:22.365Z,52.14
2022-10-07T12:26:04.372Z,52.21
2022-10-07T12:28:40.955Z,52.00
2022-10-07T12:31:17.955Z,52.03
2022-10-07T12:33:47.724Z,52.08
2022-10-07T12:36:27.790Z,52.63
2022-10-07T12:38:59.626Z,52.37
2022-10-07T12:41:26.568Z,52.43
2022-10-07T12:44:10.914Z,52.51
2022-10-07T12:46:37.863Z,52.18
2022-10-07T12:49:13.405Z,52.75
2022-10-07T12:51:41.283Z,53.04
2022-10-07T12:54:33.812Z,52.98
2022-10-07T12:57:02.733Z,53.13
2022-10-07T12:59:47.817Z,53.13
2022-10-07T13:02:52.446Z,53.07
2022-10-07T13:05:37.701Z,53.43
2022-10-07T13:08:29.251Z,53.03
2022-10-07T13:11:20.502Z,52.89
2022-10-07T13:13:59.167Z,53.09
2022-10-07T13:16:38.692Z,53.04
2022-10-07T13:19:15.709Z,53.06
2022-10-07T13:21:52.447Z,52.97
2022-10-07T13:24:24.789Z,53.28
2022-10-07T13:26:52.392Z,52.85
2022-10-07T13:29:27.930Z,53.53
2022-10-07T13:32:08.011Z,52.88
2022-10-07T13:34:35.444Z,52.52
2022-10-07T13:37:03.481Z,52.73
2022-10-07T13:39:30.814Z,52.55
2022-10-07T13:41:59.961Z,52.84
2022-10-07T13:44:30.504Z,53.00
2022-10-07T13:47:03.187Z,53.16
2022-10-07T13:49:35.405Z,53.04
2022-10-07T13:52:06.834Z,53.42
2022-10-07T13:54:34.501Z,53.16
2022-10-07T13:57:07.825Z,53.15
2022-10-07T13:59:37.500Z,53.38
2022-10-07T14:02:05.061Z,53.68
2022-10-07T14:04:34.798Z,53.26
2022-10-07T14:07:08.990Z,54.40
2022-10-07T14:09:56.576Z,54.14
2022-10-07T14:12:31.913Z,53.81
2022-10-07T14:15:21.409Z,53.71
2022-10-07T14:17:55.239Z,53.79
2022-10-07T14:20:25.840Z,53.95
2022-10-07T14:22:58.355Z,53.92
2022-10-07T14:25:48.638Z,54.24
2022-10-07T14:28:24.994Z,54.62
2022-10-07T14:31:25.941Z,54.35
2022-10-07T14:34:33.700Z,54.56
2022-10-07T14:37:18.114Z,54.44
2022-10-07T14:39:47.996Z,54.89
2022-10-07T14:42:27.761Z,54.56
2022-10-07T14:44:57.289Z,54.58
2022-10-07T14:47:28.151Z,54.66
2022-10-07T14:49:56.584Z,54.79
2022-10-07T14:52:31.043Z,55.20
2022-10-07T14:55:00.709Z,55.00
2022-10-07T14:57:27.685Z,54.95
2022-10-07T14:59:55.109Z,54.58
2022-10-07T15:02:22.588Z,55.32
2022-10-07T15:04:49.687Z,56.16
2022-10-07T15:07:17.598Z,56.48
2022-10-07T15:09:45.804Z,55.49
2022-10-07T15:12:15.258Z,56.25
2022-10-07T15:14:42.542Z,56.11
2022-10-07T15:17:13.153Z,56.40
2022-10-07T15:19:40.396Z,56.35
2022-10-07T15:22:08.776Z,56.15
2022-10-07T15:24:36.232Z,56.37
2022-10-07T15:27:03.402Z,56.64
2022-10-07T15:29:30.391Z,56.88
2022-10-07T15:31:57.390Z,56.87
2022-10-07T15:34:25.980Z,57.08
2022-10-07T15:36:52.914Z,57.17
2022-10-07T15:39:19.922Z,57.29
2022-10-07T15:41:46.878Z,57.29
2022-10-07T15:44:19.169Z,57.82
2022-10-07T15:46:48.738Z,57.71
2022-10-07T15:49:19.235Z,57.69
2022-10-07T15:51:46.928Z,57.98
2022-10-07T15:54:14.006Z,58.34
2022-10-07T15:56:42.397Z,57.94
2022-10-07T15:59:11.511Z,58.57
2022-10-07T16:01:38.466Z,58.61
2022-10-07T16:04:06.088Z,58.88
2022-10-07T16:06:35.670Z,58.64
2022-10-07T16:09:03.886Z,58.97
2022-10-07T16:11:33.145Z,59.22
2022-10-07T16:14:02.065Z,59.29
2022-10-07T16:16:31.498Z,59.49
2022-10-07T16:19:00.592Z,59.52
2022-10-07T16:21:33.125Z,59.76
2022-10-07T16:24:10.120Z,59.72
2022-10-07T16:26:37.637Z,60.43
2022-10-07T16:29:30.626Z,60.01
2022-10-07T16:31:59.174Z,59.91
2022-10-07T16:34:28.794Z,60.63
2022-10-07T16:36:57.214Z,60.72
2022-10-07T16:39:24.681Z,60.73
2022-10-07T16:41:52.487Z,60.58
2022-10-07T16:44:20.498Z,60.90
2022-10-07T16:46:48.539Z,61.05
2022-10-07T16:49:18.018Z,61.03
2022-10-07T16:51:46.702Z,61.41
2022-10-07T16:54:16.518Z,60.83
2022-10-07T16:56:47.934Z,61.42
2022-10-07T16:59:22.455Z,61.15
2022-10-07T17:01:52.222Z,61.19
2022-10-07T17:04:19.462Z,61.30
2022-10-07T17:06:46.740Z,61.28
2022-10-07T17:09:14.422Z,61.19
2022-10-07T17:11:42.146Z,61.55
2022-10-07T17:14:12.186Z,61.76
2022-10-07T17:16:58.333Z,62.03
2022-10-07T17:19:27.807Z,61.97
2022-10-07T17:21:56.661Z,62.37
2022-10-07T17:24:24.395Z,62.68
2022-10-07T17:26:55.323Z,62.38
2022-10-07T17:29:25.084Z,62.25
2022-10-07T17:31:52.585Z,62.43
2022-10-07T17:34:21.321Z,62.61
2022-10-07T17:36:49.280Z,63.25
2022-10-07T17:39:18.398Z,62.99
2022-10-07T17:41:45.464Z,62.77
2022-10-07T17:44:13.353Z,63.56
2022-10-07T17:46:41.786Z,63.64
2022-10-07T17:49:14.796Z,63.16
2022-10-07T17:51:43.468Z,63.33
2022-10-07T17:54:12.232Z,63.73
2022-10-07T17:56:39.626Z,63.42
2022-10-07T17:59:06.775Z,63.44
2022-10-07T18:01:35.228Z,63.55
2022-10-07T18:04:05.091Z,63.79
2022-10-07T18:06:34.549Z,64.04
2022-10-07T18:09:04.519Z,64.20
2022-10-07T18:11:51.282Z,64.34
2022-10-07T18:14:37.812Z,64.78
2022-10-07T18:17:06.353Z,64.38
2022-10-07T18:19:33.739Z,64.30
2022-10-07T18:22:03.114Z,64.21
2022-10-07T18:24:30.250Z,64.27
2022-10-07T18:26:59.289Z,64.24
2022-10-07T18:29:27.924Z,64.37
2022-10-07T18:31:55.100Z,64.35
2022-10-07T18:34:22.479Z,63.99
2022-10-07T18:36:55.227Z,64.21
2022-10-07T18:39:23.766Z,64.85
2022-10-07T18:41:51.212Z,64.72
2022-10-07T18:44:18.330Z,65.00
2022-10-07T18:46:45.643Z,64.72
2022-10-07T18:49:15.410Z,65.24
2022-10-07T18:51:43.189Z,65.11
2022-10-07T18:54:10.808Z,65.60
2022-10-07T18:56:41.062Z,65.47
2022-10-07T18:59:10.012Z,65.11
2022-10-07T19:01:38.008Z,65.25
2022-10-07T19:04:06.946Z,65.22
2022-10-07T19:06:36.975Z,65.36
2022-10-07T19:09:08.712Z,65.53
2022-10-07T19:11:36.216Z,65.56
2022-10-07T19:14:04.118Z,65.59
2022-10-07T19:16:36.854Z,66.11
2022-10-07T19:19:06.995Z,65.58
2022-10-07T19:21:35.992Z,66.09
2022-10-07T19:24:03.789Z,65.88
2022-10-07T19:26:35.202Z,65.49
2022-10-07T19:29:03.216Z,66.20
2022-10-07T19:31:36.576Z,65.88
2022-10-07T19:34:12.644Z,65.74
2022-10-07T19:36:42.445Z,65.75
2022-10-07T19:39:10.868Z,65.84
2022-10-07T19:41:38.428Z,65.89
2022-10-07T19:44:05.964Z,66.22
2022-10-07T19:46:33.742Z,66.09
2022-10-07T19:49:02.213Z,65.97
2022-10-07T19:51:30.971Z,66.04
2022-10-07T19:54:00.755Z,66.07
2022-10-07T19:56:31.314Z,66.03
2022-10-07T19:59:05.547Z,66.33
2022-10-07T20:01:38.167Z,66.27
2022-10-07T20:04:12.875Z,66.29
2022-10-07T20:06:41.100Z,66.67
2022-10-07T20:09:11.438Z,66.38
2022-10-07T20:11:38.550Z,66.47
2022-10-07T20:14:06.794Z,66.70
2022-10-07T20:16:34.953Z,66.80
2022-10-07T20:19:08.054Z,67.02
2022-10-07T20:21:37.692Z,66.72
2022-10-07T20:24:06.850Z,66.56
2022-10-07T20:26:36.478Z,66.77
2022-10-07T20:29:06.073Z,66.74
2022-10-07T20:31:35.576Z,66.71
2022-10-07T20:34:03.079Z,66.63
2022-10-07T20:36:35.217Z,67.08
2022-10-07T20:39:35.808Z,67.16
2022-10-07T20:42:21.370Z,67.22
2022-10-07T20:44:49.612Z,67.00
2022-10-07T20:47:17.931Z,67.06
2022-10-07T20:49:44.979Z,67.01
2022-10-07T20:52:16.921Z,67.34
2022-10-07T20:54:44.733Z,67.08
2022-10-07T20:57:13.151Z,67.24
2022-10-07T20:59:42.072Z,67.64
2022-10-07T21:02:14.500Z,67.48
2022-10-07T21:04:42.158Z,67.67
2022-10-07T21:07:09.424Z,67.49
2022-10-07T21:09:36.793Z,68.14
2022-10-07T21:12:07.509Z,67.83
2022-10-07T21:14:38.097Z,68.17
2022-10-07T21:17:06.337Z,68.15
2022-10-07T21:19:36.124Z,68.32
2022-10-07T21:22:05.151Z,68.46
2022-10-07T21:24:36.039Z,68.17
2022-10-07T21:27:05.728Z,68.63
2022-10-07T21:29:38.944Z,68.59
2022-10-07T21:32:08.384Z,68.24
2022-10-07T21:34:35.483Z,68.39
2022-10-07T21:37:02.887Z,68.46
2022-10-07T21:39:30.079Z,68.18
2022-10-07T21:41:58.172Z,68.51
2022-10-07T21:44:26.931Z,68.49
2022-10-07T21:46:53.915Z,68.42
2022-10-07T21:49:20.980Z,68.65
2022-10-07T21:51:48.186Z,68.51
2022-10-07T21:54:15.628Z,68.73
2022-10-07T21:56:46.188Z,68.63
2022-10-07T21:59:14.459Z,68.38
2022-10-07T22:01:42.744Z,68.64
2022-10-07T22:04:16.251Z,68.50
2022-10-07T22:07:01.696Z,68.36
2022-10-07T22:09:29.081Z,68.56
2022-10-07T22:11:57.153Z,68.75
2022-10-07T22:14:24.198Z,68.71
2022-10-07T22:16:51.219Z,68.26
2022-10-07T22:19:18.247Z,68.51
2022-10-07T22:21:45.995Z,68.65
2022-10-07T22:24:14.253Z,68.95
2022-10-07T22:26:46.111Z,68.89
2022-10-07T22:29:15.481Z,68.95
2022-10-07T22:31:43.068Z,68.70
2022-10-07T22:34:30.277Z,69.14
2022-10-07T22:37:00.031Z,69.45
2022-10-07T22:39:28.790Z,69.49
2022-10-07T22:41:59.940Z,69.40
2022-10-07T22:44:28.223Z,69.35
2022-10-07T22:46:56.591Z,69.25
2022-10-07T22:49:28.622Z,69.36
2022-10-07T22:51:58.337Z,69.41
2022-10-07T22:54:26.321Z,69.63
2022-10-07T22:56:53.291Z,69.38
2022-10-07T22:59:20.276Z,70.09
2022-10-07T23:01:47.254Z,70.09
2022-10-07T23:04:14.330Z,70.05
2022-10-07T23:06:41.375Z,69.98
2022-10-07T23:09:08.472Z,70.08
2022-10-07T23:11:35.510Z,70.36
2022-10-07T23:14:02.697Z,70.46
2022-10-07T23:16:30.280Z,69.99
2022-10-07T23:18:59.143Z,70.27
2022-10-07T23:21:28.649Z,70.01
2022-10-07T23:24:06.953Z,70.30
2022-10-07T23:26:35.850Z,70.30
2022-10-07T23:29:02.973Z,70.66
2022-10-07T23:31:32.319Z,70.49
2022-10-07T23:34:01.739Z,70.54
2022-10-07T23:36:29.472Z,70.79
2022-10-07T23:38:58.294Z,70.94
2022-10-07T23:41:29.555Z,70.99
2022-10-07T23:44:02.255Z,71.16
2022-10-07T23:46:33.204Z,70.98
2022-10-07T23:49:00.800Z,70.61
2022-10-07T23:51:28.990Z,71.37
2022-10-07T23:53:56.724Z,71.37
2022-10-07T23:56:24.030Z,71.91
2022-10-07T23:58:51.231Z,71.46
